createdAt,value
2018-11-26T00:00:31.005Z,89.71
2018-11-26T00:03:01.004Z,89.58
2018-11-26T00:05:31.255Z,89.62
2018-11-26T00:08:01.809Z,89.65
2018-11-26T00:10:42.367Z,89.95
2018-11-26T00:13:12.597Z,90.10
2018-11-26T00:15:42.531Z,90.16
2018-11-26T00:18:12.528Z,90.27
2018-11-26T00:20:42.887Z,90.38
2018-11-26T00:23:12.613Z,90.12
2018-11-26T00:25:42.562Z,90.36
2018-11-26T00:28:12.687Z,90.35
2018-11-26T00:30:43.075Z,90.13
2018-11-26T00:33:13.154Z,90.19
2018-11-26T00:35:43.105Z,89.98
2018-11-26T00:38:14.570Z,90.56
2018-11-26T00:40:45.118Z,90.23
2018-11-26T00:43:14.912Z,90.64
2018-11-26T00:45:44.890Z,90.61
2018-11-26T00:48:14.766Z,90.16
2018-11-26T00:50:44.765Z,90.37
2018-11-26T00:53:14.675Z,90.38
2018-11-26T00:55:44.534Z,90.28
2018-11-26T00:58:14.359Z,90.25
2018-11-26T01:00:44.288Z,90.53
2018-11-26T01:03:14.212Z,90.79
2018-11-26T01:05:44.162Z,90.79
2018-11-26T01:08:14.151Z,90.55
2018-11-26T01:10:44.058Z,90.64
2018-11-26T01:13:13.905Z,90.59
2018-11-26T01:15:44.496Z,90.74
2018-11-26T01:18:14.434Z,90.66
2018-11-26T01:20:44.292Z,90.23
2018-11-26T01:23:14.141Z,90.22
2018-11-26T01:25:44.155Z,90.34
2018-11-26T01:28:13.997Z,90.13
2018-11-26T01:30:43.946Z,90.17
2018-11-26T01:33:13.898Z,90.33
2018-11-26T01:35:43.860Z,90.24
2018-11-26T01:38:13.753Z,90.56
2018-11-26T01:40:48.649Z,89.82
2018-11-26T01:43:18.534Z,90.62
2018-11-26T01:45:48.452Z,90.92
2018-11-26T01:48:18.412Z,90.67
2018-11-26T01:50:48.366Z,90.62
2018-11-26T01:53:18.220Z,90.86
2018-11-26T01:55:48.129Z,90.48
2018-11-26T01:58:18.031Z,90.76
2018-11-26T02:00:47.926Z,90.46
2018-11-26T02:03:18.449Z,90.01
2018-11-26T02:05:48.345Z,90.08
2018-11-26T02:08:18.240Z,90.52
2018-11-26T02:10:48.203Z,90.84
2018-11-26T02:13:18.113Z,90.92
2018-11-26T02:15:48.060Z,90.77
2018-11-26T02:18:17.981Z,90.89
2018-11-26T02:20:47.866Z,90.86
2018-11-26T02:23:17.723Z,90.85
2018-11-26T02:25:47.623Z,90.66
2018-11-26T02:28:17.552Z,90.78
2018-11-26T02:30:47.387Z,90.64
2018-11-26T02:33:18.214Z,90.59
2018-11-26T02:35:48.061Z,90.36
2018-11-26T02:38:18.039Z,90.25
2018-11-26T02:40:47.940Z,90.42
2018-11-26T02:43:17.813Z,89.99
2018-11-26T02:45:47.711Z,90.38
2018-11-26T02:48:17.631Z,89.80
2018-11-26T02:50:47.556Z,90.52
2018-11-26T02:53:17.453Z,90.50
2018-11-26T02:55:47.384Z,90.28
2018-11-26T02:58:17.293Z,90.45
2018-11-26T03:00:47.437Z,90.29
2018-11-26T03:03:17.339Z,89.93
2018-11-26T03:05:47.210Z,90.32
2018-11-26T03:08:17.036Z,89.99
2018-11-26T03:10:46.954Z,89.79
2018-11-26T03:13:16.848Z,89.97
2018-11-26T03:15:46.803Z,90.06
2018-11-26T03:18:16.630Z,89.99
2018-11-26T03:20:46.553Z,90.14
2018-11-26T03:23:16.480Z,90.07
2018-11-26T03:25:46.407Z,90.28
2018-11-26T03:28:16.304Z,90.07
2018-11-26T03:30:46.930Z,90.07
2018-11-26T03:33:16.707Z,90.24
2018-11-26T03:35:46.574Z,90.33
2018-11-26T03:38:21.588Z,90.17
2018-11-26T03:40:51.520Z,90.20
2018-11-26T03:43:21.402Z,90.42
2018-11-26T03:45:51.226Z,90.64
2018-11-26T03:48:21.089Z,90.60
2018-11-26T03:50:51.030Z,90.44
2018-11-26T03:53:20.909Z,90.64
2018-11-26T03:55:50.829Z,90.83
2018-11-26T03:58:20.693Z,90.83
2018-11-26T04:00:53.512Z,90.59
2018-11-26T04:03:23.417Z,90.70
2018-11-26T04:05:53.233Z,90.54
2018-11-26T04:08:23.219Z,90.58
2018-11-26T04:10:53.194Z,90.38
2018-11-26T04:13:23.063Z,90.52
2018-11-26T04:15:52.959Z,90.42
2018-11-26T04:18:22.795Z,90.36
2018-11-26T04:20:52.759Z,90.35
2018-11-26T04:23:22.645Z,90.62
2018-11-26T04:25:52.570Z,90.54
2018-11-26T04:28:22.372Z,90.86
2018-11-26T04:30:52.245Z,90.88
2018-11-26T04:33:22.195Z,91.11
2018-11-26T04:35:52.103Z,91.02
2018-11-26T04:38:22.028Z,91.03
2018-11-26T04:40:51.904Z,90.78
2018-11-26T04:43:21.798Z,90.96
2018-11-26T04:45:51.640Z,90.79
2018-11-26T04:48:21.550Z,91.16
2018-11-26T04:50:51.511Z,91.29
2018-11-26T04:53:21.430Z,91.10
2018-11-26T04:55:51.337Z,91.01
2018-11-26T04:58:21.317Z,91.01
2018-11-26T05:00:51.113Z,90.70
2018-11-26T05:03:21.032Z,90.48
2018-11-26T05:05:50.945Z,91.02
2018-11-26T05:08:20.812Z,90.99
2018-11-26T05:10:51.225Z,91.00
2018-11-26T05:13:20.595Z,91.21
2018-11-26T05:15:50.520Z,91.20
2018-11-26T05:18:20.337Z,91.18
2018-11-26T05:20:50.252Z,90.97
2018-11-26T05:23:20.158Z,91.30
2018-11-26T05:25:50.108Z,91.12
2018-11-26T05:28:19.940Z,90.85
2018-11-26T05:30:49.933Z,91.01
2018-11-26T05:33:19.760Z,91.21
2018-11-26T05:35:49.672Z,90.99
2018-11-26T05:38:19.561Z,91.11
2018-11-26T05:40:49.383Z,91.31
2018-11-26T05:43:19.265Z,91.46
2018-11-26T05:45:49.017Z,91.56
2018-11-26T05:48:19.077Z,91.57
2018-11-26T05:50:48.858Z,91.70
2018-11-26T05:53:18.710Z,91.63
2018-11-26T05:55:48.632Z,91.59
2018-11-26T05:58:18.361Z,91.53
2018-11-26T06:00:48.170Z,91.43
2018-11-26T06:03:17.950Z,91.52
2018-11-26T06:05:47.748Z,91.44
2018-11-26T06:08:17.497Z,91.58
2018-11-26T06:10:47.202Z,91.59
2018-11-26T06:13:17.187Z,91.72
2018-11-26T06:15:46.970Z,91.74
2018-11-26T06:18:16.783Z,91.71
2018-11-26T06:20:46.588Z,91.66
2018-11-26T06:23:16.308Z,91.83
2018-11-26T06:25:45.986Z,91.80
2018-11-26T06:28:15.837Z,91.87
2018-11-26T06:30:45.590Z,91.98
2018-11-26T06:33:15.486Z,95.78
2018-11-26T06:35:45.363Z,93.92
2018-11-26T06:38:15.223Z,93.09
2018-11-26T06:40:45.124Z,92.70
2018-11-26T06:43:14.964Z,90.94
2018-11-26T06:45:44.734Z,89.24
2018-11-26T06:48:14.667Z,88.21
2018-11-26T06:50:44.549Z,86.85
2018-11-26T06:53:14.344Z,85.20
2018-11-26T06:55:44.191Z,85.58
2018-11-26T06:58:13.988Z,86.27
2018-11-26T07:00:43.796Z,86.92
2018-11-26T07:03:13.629Z,88.23
2018-11-26T07:05:43.488Z,88.98
2018-11-26T07:08:13.341Z,89.72
2018-11-26T07:10:43.314Z,89.80
2018-11-26T07:13:13.036Z,90.39
2018-11-26T07:15:42.944Z,90.82
2018-11-26T07:18:12.862Z,90.80
2018-11-26T07:20:42.729Z,90.96
2018-11-26T07:23:12.553Z,91.50
2018-11-26T07:25:42.460Z,91.79
2018-11-26T07:28:12.251Z,90.29
2018-11-26T07:30:42.056Z,89.61
2018-11-26T07:33:11.861Z,89.42
2018-11-26T07:35:41.645Z,89.18
2018-11-26T07:38:11.490Z,89.39
2018-11-26T07:40:41.390Z,89.84
2018-11-26T07:43:12.617Z,90.18
2018-11-26T07:45:42.532Z,90.48
2018-11-26T07:48:13.032Z,90.53
2018-11-26T07:50:42.884Z,90.48
2018-11-26T07:53:12.973Z,90.23
2018-11-26T07:55:42.799Z,90.29
2018-11-26T07:58:12.722Z,90.36
2018-11-26T08:00:42.595Z,90.01
2018-11-26T08:03:12.427Z,89.80
2018-11-26T08:05:42.238Z,87.21
2018-11-26T08:08:12.191Z,87.48
2018-11-26T08:10:42.109Z,88.16
2018-11-26T08:13:12.051Z,88.95
2018-11-26T08:15:41.887Z,88.97
2018-11-26T08:18:11.743Z,88.50
2018-11-26T08:20:41.516Z,88.00
2018-11-26T08:23:11.462Z,86.61
2018-11-26T08:25:41.268Z,86.93
2018-11-26T08:28:11.040Z,85.88
2018-11-26T08:30:40.866Z,86.40
2018-11-26T08:33:10.626Z,85.67
2018-11-26T08:35:40.521Z,86.00
2018-11-26T08:38:15.485Z,85.84
2018-11-26T08:40:49.330Z,85.46
2018-11-26T08:43:20.136Z,84.23
2018-11-26T08:45:57.712Z,85.14
2018-11-26T08:48:28.223Z,85.19
2018-11-26T08:51:01.201Z,85.27
2018-11-26T08:53:31.367Z,85.38
2018-11-26T08:56:01.314Z,84.35
2018-11-26T08:58:31.142Z,83.00
2018-11-26T09:01:04.368Z,83.45
2018-11-26T09:03:36.983Z,84.25
2018-11-26T09:06:06.941Z,84.71
2018-11-26T09:08:37.819Z,85.21
2018-11-26T09:11:09.363Z,84.62
2018-11-26T09:13:39.270Z,83.26
2018-11-26T09:16:09.187Z,83.11
2018-11-26T09:18:38.926Z,82.19
2018-11-26T09:21:08.759Z,83.41
2018-11-26T09:23:38.583Z,83.91
2018-11-26T09:26:08.399Z,84.39
2018-11-26T09:28:38.245Z,82.68
2018-11-26T09:31:08.046Z,84.16
2018-11-26T09:33:37.968Z,84.59
2018-11-26T09:36:07.871Z,89.18
2018-11-26T09:38:37.674Z,85.28
2018-11-26T09:41:07.655Z,84.08
2018-11-26T09:43:37.867Z,84.54
2018-11-26T09:46:07.936Z,85.13
2018-11-26T09:48:37.751Z,85.23
2018-11-26T09:51:09.972Z,83.80
2018-11-26T09:53:37.381Z,83.27
2018-11-26T09:56:07.212Z,82.75
2018-11-26T09:58:37.032Z,83.46
2018-11-26T10:01:07.003Z,84.02
2018-11-26T10:03:36.876Z,84.12
2018-11-26T10:06:06.916Z,83.24
2018-11-26T10:08:36.716Z,81.99
2018-11-26T10:11:06.684Z,80.73
2018-11-26T10:13:36.500Z,82.32
2018-11-26T10:16:07.180Z,81.20
2018-11-26T10:18:37.416Z,81.59
2018-11-26T10:21:07.403Z,80.96
2018-11-26T10:23:37.904Z,81.40
2018-11-26T10:26:08.651Z,81.21
2018-11-26T10:28:39.098Z,80.68
2018-11-26T10:31:09.540Z,81.76
2018-11-26T10:33:40.007Z,81.50
2018-11-26T10:36:10.387Z,82.22
2018-11-26T10:38:40.070Z,83.14
2018-11-26T10:41:11.222Z,81.54
2018-11-26T10:43:41.358Z,82.16
2018-11-26T10:46:12.178Z,81.95
2018-11-26T10:48:41.896Z,82.83
2018-11-26T10:51:11.638Z,80.96
2018-11-26T10:53:41.921Z,81.41
2018-11-26T10:56:12.239Z,81.64
2018-11-26T10:58:42.758Z,82.54
2018-11-26T11:02:15.543Z,83.16
2018-11-26T11:04:47.717Z,81.86
2018-11-26T11:07:15.436Z,81.99
2018-11-26T11:09:46.090Z,80.33
2018-11-26T11:12:16.567Z,81.01
2018-11-26T11:14:46.857Z,82.42
2018-11-26T11:17:17.224Z,80.63
2018-11-26T11:19:47.828Z,79.20
2018-11-26T11:22:18.119Z,80.10
2018-11-26T11:24:48.863Z,81.34
2018-11-26T11:27:19.571Z,79.81
2018-11-26T11:29:49.381Z,80.65
2018-11-26T11:32:19.712Z,80.58
2018-11-26T11:34:49.936Z,80.57
2018-11-26T11:37:20.145Z,82.33
2018-11-26T11:39:51.485Z,79.93
2018-11-26T11:42:21.789Z,80.95
2018-11-26T11:44:52.488Z,81.58
2018-11-26T11:47:23.771Z,79.46
2018-11-26T11:49:53.943Z,80.23
2018-11-26T11:52:25.234Z,79.92
2018-11-26T11:54:55.321Z,79.21
2018-11-26T11:57:26.546Z,81.12
2018-11-26T11:59:57.727Z,80.80
2018-11-26T12:02:28.091Z,78.64
2018-11-26T12:04:57.907Z,79.38
2018-11-26T12:07:28.893Z,78.64
2018-11-26T12:09:59.110Z,78.92
2018-11-26T12:12:29.826Z,80.45
2018-11-26T12:15:01.007Z,79.70
2018-11-26T12:17:31.549Z,79.43
2018-11-26T12:20:01.428Z,79.57
2018-11-26T12:22:32.539Z,78.83
2018-11-26T12:25:03.004Z,78.52
2018-11-26T12:27:34.050Z,81.10
2018-11-26T12:30:03.949Z,78.98
2018-11-26T12:32:34.209Z,79.70
2018-11-26T12:35:04.633Z,79.58
2018-11-26T12:37:35.842Z,78.79
2018-11-26T12:40:09.006Z,79.45
2018-11-26T12:42:38.837Z,79.80
2018-11-26T12:45:28.151Z,78.92
2018-11-26T12:47:58.259Z,80.73
2018-11-26T12:50:28.199Z,78.64
2018-11-26T12:52:58.847Z,80.17
2018-11-26T12:55:29.621Z,80.19
2018-11-26T12:58:00.120Z,79.97
2018-11-26T13:00:31.786Z,80.45
2018-11-26T13:03:03.917Z,80.58
2018-11-26T13:05:33.725Z,79.01
2018-11-26T13:08:04.218Z,79.93
2018-11-26T13:10:36.946Z,79.47
2018-11-26T13:13:08.199Z,78.43
2018-11-26T13:15:38.418Z,78.79
2018-11-26T13:18:08.602Z,79.31
2018-11-26T13:20:38.857Z,78.05
2018-11-26T13:23:10.038Z,80.55
2018-11-26T13:25:42.174Z,78.23
2018-11-26T13:28:12.265Z,79.51
2018-11-26T13:30:44.256Z,79.27
2018-11-26T13:33:16.555Z,79.93
2018-11-26T13:35:47.741Z,80.36
2018-11-26T13:38:18.069Z,81.44
2018-11-26T13:40:48.909Z,80.02
2018-11-26T13:43:19.980Z,79.44
2018-11-26T13:45:50.662Z,80.18
2018-11-26T13:48:21.266Z,80.75
2018-11-26T13:50:56.261Z,78.27
2018-11-26T13:53:27.139Z,79.57
2018-11-26T13:55:57.335Z,78.69
2018-11-26T13:58:28.627Z,79.90
2018-11-26T14:00:58.851Z,80.18
2018-11-26T14:03:29.147Z,79.91
2018-11-26T14:05:59.628Z,79.69
2018-11-26T14:08:30.339Z,80.03
2018-11-26T14:11:00.563Z,78.74
2018-11-26T14:13:30.677Z,80.64
2018-11-26T14:16:01.497Z,83.97
2018-11-26T14:18:32.824Z,80.95
2018-11-26T14:21:02.942Z,80.02
2018-11-26T14:23:33.203Z,80.57
2018-11-26T14:26:03.398Z,78.22
2018-11-26T14:28:33.840Z,79.00
2018-11-26T14:31:04.880Z,79.34
2018-11-26T14:33:36.000Z,78.41
2018-11-26T14:36:06.349Z,78.83
2018-11-26T14:38:36.981Z,78.82
2018-11-26T14:41:07.807Z,80.13
2018-11-26T14:43:38.497Z,78.96
2018-11-26T14:46:08.540Z,80.22
2018-11-26T14:48:38.677Z,79.40
2018-11-26T14:51:10.300Z,80.64
2018-11-26T14:53:40.525Z,80.73
2018-11-26T14:56:10.331Z,79.96
2018-11-26T14:58:40.621Z,81.77
2018-11-26T15:01:10.849Z,79.75
2018-11-26T15:03:41.574Z,80.40
2018-11-26T15:06:12.804Z,79.83
2018-11-26T15:08:43.049Z,80.30
2018-11-26T15:11:14.409Z,81.88
2018-11-26T15:13:44.329Z,80.86
2018-11-26T15:16:15.091Z,80.91
2018-11-26T15:18:45.485Z,80.86
2018-11-26T15:21:15.824Z,82.00
2018-11-26T15:23:46.689Z,82.15
2018-11-26T15:26:16.920Z,81.85
2018-11-26T15:28:46.655Z,82.22
2018-11-26T15:31:17.839Z,81.91
2018-11-26T15:33:48.149Z,80.35
2018-11-26T15:36:21.774Z,79.81
2018-11-26T15:38:51.976Z,81.52
2018-11-26T15:41:22.346Z,81.51
2018-11-26T15:43:52.301Z,81.02
2018-11-26T15:46:22.112Z,80.54
2018-11-26T15:48:51.958Z,82.33
2018-11-26T15:51:23.040Z,82.64
2018-11-26T15:53:53.889Z,81.34
2018-11-26T15:56:24.059Z,79.63
2018-11-26T15:58:53.878Z,81.76
2018-11-26T16:01:25.338Z,81.67
2018-11-26T16:03:55.776Z,82.02
2018-11-26T16:06:26.523Z,81.46
2018-11-26T16:08:57.456Z,82.05
2018-11-26T16:11:27.546Z,81.55
2018-11-26T16:13:58.329Z,81.42
2018-11-26T16:16:28.516Z,80.19
2018-11-26T16:18:58.435Z,81.28
2018-11-26T16:21:28.209Z,82.22
2018-11-26T16:23:59.242Z,82.59
2018-11-26T16:26:29.340Z,88.00
2018-11-26T16:29:00.391Z,83.13
2018-11-26T16:31:31.284Z,80.50
2018-11-26T16:34:01.463Z,80.90
2018-11-26T16:36:31.615Z,80.72
2018-11-26T16:39:01.693Z,81.29
2018-11-26T16:41:33.210Z,79.40
2018-11-26T16:44:04.164Z,81.01
2018-11-26T16:46:34.978Z,79.29
2018-11-26T16:49:06.081Z,80.26
2018-11-26T16:51:36.848Z,80.22
2018-11-26T16:54:08.319Z,80.64
2018-11-26T16:56:39.052Z,81.45
2018-11-26T16:59:10.005Z,81.91
2018-11-26T17:01:40.662Z,82.70
2018-11-26T17:04:11.168Z,80.28
2018-11-26T17:06:42.037Z,81.37
2018-11-26T17:09:13.682Z,79.96
2018-11-26T17:11:43.414Z,78.95
2018-11-26T17:14:14.169Z,78.06
2018-11-26T17:16:44.140Z,79.71
2018-11-26T17:19:14.445Z,80.86
2018-11-26T17:21:44.980Z,80.48
2018-11-26T17:24:15.266Z,80.43
2018-11-26T17:26:45.407Z,80.78
2018-11-26T17:29:15.729Z,79.38
2018-11-26T17:31:45.443Z,77.57
2018-11-26T17:34:16.116Z,77.52
2018-11-26T17:36:46.995Z,77.05
2018-11-26T17:39:18.520Z,76.88
2018-11-26T17:41:50.387Z,76.54
2018-11-26T17:44:21.154Z,76.14
2018-11-26T17:46:51.815Z,77.80
2018-11-26T17:49:22.238Z,76.16
2018-11-26T17:51:52.831Z,76.28
2018-11-26T17:54:23.865Z,76.32
2018-11-26T17:56:54.388Z,77.69
2018-11-26T17:59:24.967Z,75.75
2018-11-26T18:01:54.763Z,77.81
2018-11-26T18:04:25.726Z,75.20
2018-11-26T18:06:56.335Z,77.15
2018-11-26T18:09:26.549Z,76.73
2018-11-26T18:11:57.040Z,75.42
2018-11-26T18:14:30.216Z,77.24
2018-11-26T18:17:00.497Z,81.33
2018-11-26T18:19:31.087Z,78.15
2018-11-26T18:22:01.821Z,78.41
2018-11-26T18:24:32.224Z,77.65
2018-11-26T18:27:02.556Z,77.14
2018-11-26T18:29:32.977Z,76.71
2018-11-26T18:32:03.633Z,77.10
2018-11-26T18:34:34.391Z,76.39
2018-11-26T18:37:04.168Z,76.07
2018-11-26T18:39:34.437Z,77.20
2018-11-26T18:42:04.457Z,77.84
2018-11-26T18:44:34.494Z,83.88
2018-11-26T18:47:04.361Z,84.74
2018-11-26T18:49:34.294Z,75.66
2018-11-26T18:52:04.305Z,75.56
2018-11-26T18:54:34.197Z,76.69
2018-11-26T18:57:03.970Z,77.14
2018-11-26T18:59:33.775Z,76.16
2018-11-26T19:02:03.665Z,73.69
2018-11-26T19:04:33.597Z,75.13
2018-11-26T19:07:03.721Z,75.40
2018-11-26T19:09:33.578Z,77.38
2018-11-26T19:12:04.146Z,75.13
2018-11-26T19:14:34.669Z,75.75
2018-11-26T19:17:05.092Z,75.69
2018-11-26T19:19:35.216Z,75.50
2018-11-26T19:22:06.208Z,75.24
2018-11-26T19:24:37.553Z,76.95
2018-11-26T19:27:08.112Z,77.11
2018-11-26T19:29:37.991Z,78.09
2018-11-26T19:32:07.953Z,78.88
2018-11-26T19:34:38.382Z,79.39
2018-11-26T19:37:08.282Z,79.94
2018-11-26T19:39:38.631Z,78.14
2018-11-26T19:42:09.229Z,78.94
2018-11-26T19:44:40.517Z,80.15
2018-11-26T19:47:10.931Z,80.50
2018-11-26T19:49:40.916Z,80.30
2018-11-26T19:52:10.856Z,80.06
2018-11-26T19:54:40.971Z,79.81
2018-11-26T19:57:11.114Z,80.22
2018-11-26T19:59:42.201Z,80.23
2018-11-26T20:02:13.647Z,81.31
2018-11-26T20:04:53.041Z,80.39
2018-11-26T20:07:23.117Z,79.76
2018-11-26T20:09:54.283Z,79.49
2018-11-26T20:12:24.938Z,79.65
2018-11-26T20:14:55.520Z,79.96
2018-11-26T20:17:25.808Z,80.30
2018-11-26T20:19:55.813Z,80.07
2018-11-26T20:22:26.870Z,80.20
2018-11-26T20:24:56.712Z,80.65
2018-11-26T20:27:26.700Z,80.60
2018-11-26T20:29:57.243Z,80.79
2018-11-26T20:32:30.296Z,80.61
2018-11-26T20:34:59.160Z,81.04
2018-11-26T20:37:30.190Z,80.47
2018-11-26T20:40:00.670Z,79.79
2018-11-26T20:42:34.842Z,75.87
2018-11-26T20:45:06.562Z,76.14
2018-11-26T20:47:36.470Z,75.19
2018-11-26T20:50:09.570Z,75.03
2018-11-26T20:52:39.340Z,72.69
2018-11-26T20:55:12.155Z,72.17
2018-11-26T20:57:42.720Z,73.10
2018-11-26T21:00:16.340Z,75.16
2018-11-26T21:02:47.470Z,75.98
2018-11-26T21:05:18.400Z,75.86
2018-11-26T21:07:49.141Z,74.25
2018-11-26T21:10:20.208Z,73.75
2018-11-26T21:12:51.302Z,74.53
2018-11-26T21:15:23.365Z,75.48
2018-11-26T21:17:54.528Z,76.33
2018-11-26T21:20:31.589Z,77.55
2018-11-26T21:23:02.588Z,77.46
2018-11-26T21:25:33.363Z,71.91
2018-11-26T21:28:04.969Z,72.60
2018-11-26T21:30:36.613Z,73.62
2018-11-26T21:33:07.161Z,74.64
2018-11-26T21:35:39.937Z,75.19
2018-11-26T21:38:11.501Z,75.21
2018-11-26T21:40:42.540Z,74.66
2018-11-26T21:43:13.224Z,74.91
2018-11-26T21:45:46.124Z,73.93
2018-11-26T21:48:16.376Z,70.75
2018-11-26T21:50:46.909Z,70.50
2018-11-26T21:53:17.930Z,70.48
2018-11-26T21:55:48.040Z,70.55
2018-11-26T21:58:18.529Z,70.39
2018-11-26T22:00:50.969Z,70.57
2018-11-26T22:03:20.668Z,70.90
2018-11-26T22:05:50.585Z,70.34
2018-11-26T22:08:20.280Z,70.35
2018-11-26T22:10:50.275Z,69.43
2018-11-26T22:13:21.660Z,69.53
2018-11-26T22:15:51.753Z,70.49
2018-11-26T22:18:23.497Z,71.13
2018-11-26T22:20:53.960Z,70.83
2018-11-26T22:23:24.221Z,69.69
2018-11-26T22:25:55.478Z,69.22
2018-11-26T22:28:25.331Z,69.57
2018-11-26T22:30:55.606Z,70.07
2018-11-26T22:33:25.375Z,71.40
2018-11-26T22:35:56.329Z,72.19
2018-11-26T22:38:26.477Z,70.45
2018-11-26T22:40:58.248Z,71.84
2018-11-26T22:43:28.720Z,71.35
2018-11-26T22:45:59.077Z,72.53
2018-11-26T22:48:28.874Z,71.25
2018-11-26T22:50:58.757Z,72.20
2018-11-26T22:53:30.125Z,73.06
2018-11-26T22:56:00.629Z,71.96
2018-11-26T22:58:31.344Z,72.84
2018-11-26T23:01:01.780Z,74.70
2018-11-26T23:03:34.045Z,74.72
2018-11-26T23:06:05.864Z,73.75
2018-11-26T23:08:37.042Z,71.81
2018-11-26T23:11:08.650Z,73.22
2018-11-26T23:13:38.972Z,72.69
2018-11-26T23:16:10.298Z,71.89
2018-11-26T23:18:40.854Z,70.81
2018-11-26T23:21:11.644Z,70.68
2018-11-26T23:23:41.688Z,71.12
2018-11-26T23:26:13.320Z,69.35
2018-11-26T23:28:43.623Z,70.01
2018-11-26T23:31:13.470Z,69.89
2018-11-26T23:33:43.468Z,68.89
2018-11-26T23:36:14.118Z,68.93
2018-11-26T23:38:44.622Z,69.10
2018-11-26T23:41:14.426Z,69.80
2018-11-26T23:43:46.059Z,68.74
2018-11-26T23:46:16.888Z,69.41
2018-11-26T23:48:48.036Z,69.80
2018-11-26T23:51:18.978Z,70.58
2018-11-26T23:53:49.481Z,70.66
2018-11-26T23:56:19.740Z,71.25
2018-11-26T23:58:49.969Z,70.40
